Página principal
METAR-TAF:

METAR-TAF

Aeroportos :

Duchambe, Tadjiquistão

latitude: 38-33N, longitude: 068-47E, altura: 803 m

Observação actual do tempo

O boletim foi feito há 37 minutos, às 21:30 UTC
Vento 8 kt de nordeste
Temperatura 6°C
Humidade 49%
Pressão 1023 hPa
Visibilidade 10 km ou mais

METAR: UTDD 122130Z 05004MPS 9999 NSC 06/M04 Q1023 R09/D NOSIG RMK QFE699/0931

Hora: 03:07 (22:07 UTC)

Previsão

O boletim foi feito há 1 hora e 7 minutos, às 21:00 UTC
Previsão válida de 12 às 22 UTC a 13 às 10 UTC
Vento 4 kt com direcção variável
Visibilidade: 6000 m
Temporariamente
de 12 às 22 UTC a 13 às 07 UTC
Vento 10 kt de nordeste
Visibilidade: 3100 m
neblina, fumo

TAF: UTDD 122100Z 1222/1310 VRB02MPS 6000 NSC TEMPO 1222/1307 05005MPS 3100 BR FU

Observações e previsões do tempo de mais de 4000 aeroportos (mensagens METAR e TAF).

As estações disponíveis são os pontos amarelos e vermelhos sobre o mapa.

Mova o rato sobre o mapa para ver o nome da estação.

Depois clique no ponto para visualizar as observações e previsões meteorológicas.

Para alterar o mapa : clique nos botões verdes com uma cruz preta para aumentar o zoom; no botão verde com uma pitada de zoom; ou nas setas verdes para mapas adjacentes.


METAR-TAF: